Time,TemperatureF,DewpointF,PressureIn,WindDirection,WindDirectionDegrees,WindSpeedMPH,WindSpeedGustMPH,Humidity,HourlyPrecipIn,Conditions,Clouds,dailyrainin,SoftwareType,DateUTC
2013-04-08 00:19:00,50.7,44.4,29.90,ESE,112,0.0,-999.0,79,-99.99,,,0.00,Acu-Link.com,2013-04-08 04:19:00,
2013-04-08 00:34:00,49.6,44.0,29.91,ESE,112,0.0,-999.0,81,-99.99,,,0.00,Acu-Link.com,2013-04-08 04:34:00,
2013-04-08 00:49:00,49.1,43.8,29.90,ESE,112,0.0,-999.0,82,-99.99,,,0.00,Acu-Link.com,2013-04-08 04:49:00,
2013-04-08 01:04:00,49.1,43.5,29.90,NNE,22,0.0,-999.0,81,-99.99,,,0.00,Acu-Link.com,2013-04-08 05:04:00,
2013-04-08 01:20:00,48.7,43.1,29.91,NE,45,0.0,-999.0,81,-99.99,,,0.00,Acu-Link.com,2013-04-08 05:20:00,
2013-04-08 01:35:00,49.1,43.5,29.91,West,270,0.0,-999.0,81,-99.99,,,0.00,Acu-Link.com,2013-04-08 05:35:00,
2013-04-08 02:05:00,46.6,43.2,29.90,NE,45,0.0,-999.0,88,-99.99,,,0.00,Acu-Link.com,2013-04-08 06:05:00,
2013-04-08 02:20:00,47.1,42.8,29.90,ENE,67,0.0,-999.0,85,-99.99,,,0.00,Acu-Link.com,2013-04-08 06:20:00,
2013-04-08 02:35:00,45.9,42.8,29.89,ESE,112,0.0,-999.0,89,-99.99,,,0.00,Acu-Link.com,2013-04-08 06:35:00,
2013-04-08 02:50:00,45.0,42.8,29.89,ESE,112,0.0,-999.0,92,-99.99,,,0.00,Acu-Link.com,2013-04-08 06:50:00,
2013-04-08 03:05:00,45.0,43.1,29.89,ESE,112,1.7,-999.0,93,-99.99,,,0.00,Acu-Link.com,2013-04-08 07:05:00,
2013-04-08 04:06:00,43.0,42.5,29.89,WNW,292,0.0,-999.0,98,-99.99,,,0.00,Acu-Link.com,2013-04-08 08:06:00,
2013-04-08 04:22:00,43.0,42.5,29.90,ESE,112,0.0,-999.0,98,-99.99,,,0.00,Acu-Link.com,2013-04-08 08:22:00,
2013-04-08 04:37:00,43.0,42.2,29.90,West,270,1.1,-999.0,97,-99.99,,,0.00,Acu-Link.com,2013-04-08 08:37:00,
2013-04-08 04:52:00,42.6,42.1,29.90,ESE,112,0.0,-999.0,98,-99.99,,,0.00,Acu-Link.com,2013-04-08 08:52:00,
2013-04-08 05:07:00,42.1,41.6,29.90,WNW,292,0.0,-999.0,98,-99.99,,,0.00,Acu-Link.com,2013-04-08 09:07:00,
2013-04-08 05:22:00,41.7,41.4,29.90,NNW,337,0.0,-999.0,99,-99.99,,,0.00,Acu-Link.com,2013-04-08 09:22:00,
2013-04-08 05:37:00,41.4,41.1,29.91,West,270,0.0,-999.0,99,-99.99,,,0.00,Acu-Link.com,2013-04-08 09:37:00,
2013-04-08 05:53:00,41.2,40.9,29.91,SW,225,0.0,-999.0,99,-99.99,,,0.00,Acu-Link.com,2013-04-08 09:53:00,
2013-04-08 06:08:00,40.8,40.5,29.91,SSE,157,0.0,-999.0,99,-99.99,,,0.00,Acu-Link.com,2013-04-08 10:08:00,
2013-04-08 06:23:00,41.4,41.1,29.91,NE,45,0.0,-999.0,99,-99.99,,,0.00,Acu-Link.com,2013-04-08 10:23:00,
2013-04-08 06:38:00,41.0,40.7,29.92,NNW,337,0.0,-999.0,99,-99.99,,,0.00,Acu-Link.com,2013-04-08 10:38:00,
2013-04-08 06:53:00,41.4,41.1,29.93,East,90,0.0,-999.0,99,-99.99,,,0.00,Acu-Link.com,2013-04-08 10:53:00,
2013-04-08 07:08:00,41.5,41.2,29.93,East,90,0.0,-999.0,99,-99.99,,,0.00,Acu-Link.com,2013-04-08 11:08:00,
2013-04-08 07:39:00,42.3,42.0,29.94,ENE,67,2.2,-999.0,99,-99.99,,,0.00,Acu-Link.com,2013-04-08 11:39:00,
2013-04-08 08:24:00,46.8,44.0,29.94,East,90,1.7,-999.0,90,-99.99,,,0.00,Acu-Link.com,2013-04-08 12:24:00,
2013-04-08 08:54:00,53.1,46.1,29.94,SE,135,3.7,-999.0,77,-99.99,,,0.00,Acu-Link.com,2013-04-08 12:54:00,
2013-04-08 09:09:00,58.1,47.2,29.94,SSW,202,1.7,-999.0,67,-99.99,,,0.00,Acu-Link.com,2013-04-08 13:09:00,
2013-04-08 09:39:00,65.1,48.5,29.94,SW,225,0.0,-999.0,55,-99.99,,,0.00,Acu-Link.com,2013-04-08 13:39:00,
2013-04-08 09:54:00,62.1,48.5,29.94,SW,225,1.7,-999.0,61,-99.99,,,0.00,Acu-Link.com,2013-04-08 13:54:00,
2013-04-08 10:10:00,63.5,48.9,29.93,WNW,292,2.2,-999.0,59,-99.99,,,0.00,Acu-Link.com,2013-04-08 14:10:00,
2013-04-08 10:25:00,65.5,50.3,29.93,SW,225,2.7,-999.0,58,-99.99,,,0.00,Acu-Link.com,2013-04-08 14:25:00,
2013-04-08 10:55:00,71.1,52.6,29.93,SSW,202,3.7,-999.0,52,-99.99,,,0.00,Acu-Link.com,2013-04-08 14:55:00,
2013-04-08 11:10:00,70.9,52.9,29.93,SW,225,5.8,-999.0,53,-99.99,,,0.00,Acu-Link.com,2013-04-08 15:10:00,
2013-04-08 11:25:00,72.0,53.4,29.93,WNW,292,6.3,-999.0,52,-99.99,,,0.00,Acu-Link.com,2013-04-08 15:25:00,
2013-04-08 11:40:00,73.2,52.9,29.93,SSW,202,7.3,-999.0,49,-99.99,,,0.00,Acu-Link.com,2013-04-08 15:40:00,
2013-04-08 11:55:00,73.6,51.5,29.93,SSW,202,4.2,-999.0,46,-99.99,,,0.00,Acu-Link.com,2013-04-08 15:55:00,
2013-04-08 12:10:00,72.9,50.3,29.91,SSW,202,5.8,-999.0,45,-99.99,,,0.00,Acu-Link.com,2013-04-08 16:10:00,
2013-04-08 12:26:00,70.9,49.1,29.91,SSW,202,7.3,-999.0,46,-99.99,,,0.00,Acu-Link.com,2013-04-08 16:26:00,
2013-04-08 12:56:00,73.4,49.5,29.91,East,90,6.8,-999.0,43,-99.99,,,0.00,Acu-Link.com,2013-04-08 16:56:00,
2013-04-08 13:26:00,73.4,49.5,29.89,WSW,247,7.8,-999.0,43,-99.99,,,0.00,Acu-Link.com,2013-04-08 17:26:00,
2013-04-08 13:56:00,73.8,50.5,29.89,SW,225,5.3,-999.0,44,-99.99,,,0.00,Acu-Link.com,2013-04-08 17:56:00,
2013-04-08 14:11:00,74.5,50.5,29.88,SSW,202,7.8,-999.0,43,-99.99,,,0.00,Acu-Link.com,2013-04-08 18:11:00,
2013-04-08 14:27:00,75.0,51.0,29.87,NW,315,5.3,-999.0,43,-99.99,,,0.00,Acu-Link.com,2013-04-08 18:27:00,
2013-04-08 14:42:00,73.8,50.5,29.88,SSE,157,6.3,-999.0,44,-99.99,,,0.00,Acu-Link.com,2013-04-08 18:42:00,
2013-04-08 14:57:00,74.1,51.4,29.87,West,270,9.4,-999.0,45,-99.99,,,0.00,Acu-Link.com,2013-04-08 18:57:00,
2013-04-08 15:12:00,73.6,50.9,29.87,SSW,202,14.0,-999.0,45,-99.99,,,0.00,Acu-Link.com,2013-04-08 19:12:00,
2013-04-08 15:42:00,73.6,50.9,29.86,West,270,10.9,-999.0,45,-99.99,,,0.00,Acu-Link.com,2013-04-08 19:42:00,
2013-04-08 15:57:00,73.9,51.8,29.86,WSW,247,7.3,-999.0,46,-99.99,,,0.00,Acu-Link.com,2013-04-08 19:57:00,
2013-04-08 16:12:00,73.9,51.2,29.86,South,180,14.0,-999.0,45,-99.99,,,0.00,Acu-Link.com,2013-04-08 20:12:00,
2013-04-08 16:27:00,73.0,49.8,29.85,SSW,202,9.9,-999.0,44,-99.99,,,0.00,Acu-Link.com,2013-04-08 20:27:00,
2013-04-08 16:42:00,73.4,50.1,29.85,ESE,112,7.3,-999.0,44,-99.99,,,0.00,Acu-Link.com,2013-04-08 20:42:00,
2013-04-08 16:58:00,73.9,50.6,29.84,WNW,292,2.7,-999.0,44,-99.99,,,0.00,Acu-Link.com,2013-04-08 20:58:00,
2013-04-08 17:13:00,73.0,50.4,29.84,West,270,6.8,-999.0,45,-99.99,,,0.00,Acu-Link.com,2013-04-08 21:13:00,
2013-04-08 17:28:00,73.4,50.8,29.84,WSW,247,6.8,-999.0,45,-99.99,,,0.00,Acu-Link.com,2013-04-08 21:28:00,
2013-04-08 17:43:00,72.1,50.2,29.84,NNW,337,9.4,-999.0,46,-99.99,,,0.00,Acu-Link.com,2013-04-08 21:43:00,
2013-04-08 17:58:00,72.5,50.5,29.85,WNW,292,6.3,-999.0,46,-99.99,,,0.00,Acu-Link.com,2013-04-08 21:58:00,
2013-04-08 18:13:00,72.7,50.1,29.86,NW,315,6.8,-999.0,45,-99.99,,,0.00,Acu-Link.com,2013-04-08 22:13:00,
2013-04-08 19:14:00,69.8,50.8,29.86,SSE,157,7.8,-999.0,51,-99.99,,,0.00,Acu-Link.com,2013-04-08 23:14:00,
2013-04-08 19:29:00,69.4,50.5,29.85,South,180,6.8,-999.0,51,-99.99,,,0.00,Acu-Link.com,2013-04-08 23:29:00,
2013-04-08 19:44:00,68.2,50.4,29.86,WNW,292,5.3,-999.0,53,-99.99,,,0.00,Acu-Link.com,2013-04-08 23:44:00,
2013-04-08 19:59:00,67.1,50.4,29.87,South,180,4.2,-999.0,55,-99.99,,,0.00,Acu-Link.com,2013-04-08 23:59:00,
2013-04-08 20:29:00,66.0,50.3,29.88,SW,225,5.3,-999.0,57,-99.99,,,0.00,Acu-Link.com,2013-04-09 00:29:00,
2013-04-08 20:45:00,65.7,50.0,29.87,NE,45,2.7,-999.0,57,-99.99,,,0.00,Acu-Link.com,2013-04-09 00:45:00,
2013-04-08 21:00:00,65.1,50.4,29.89,SE,135,3.7,-999.0,59,-99.99,,,0.00,Acu-Link.com,2013-04-09 01:00:00,
2013-04-08 21:15:00,64.8,50.1,29.89,ENE,67,3.7,-999.0,59,-99.99,,,0.00,Acu-Link.com,2013-04-09 01:15:00,
2013-04-08 21:30:00,64.6,50.4,29.89,WSW,247,5.8,-999.0,60,-99.99,,,0.00,Acu-Link.com,2013-04-09 01:30:00,
2013-04-08 21:45:00,64.4,50.2,29.89,SSW,202,3.2,-999.0,60,-99.99,,,0.00,Acu-Link.com,2013-04-09 01:45:00,
2013-04-08 22:00:00,64.9,50.7,29.89,WSW,247,4.2,-999.0,60,-99.99,,,0.00,Acu-Link.com,2013-04-09 02:00:00,
2013-04-08 22:15:00,64.6,50.4,29.89,SSW,202,2.7,-999.0,60,-99.99,,,0.00,Acu-Link.com,2013-04-09 02:15:00,
2013-04-08 22:30:00,64.4,50.2,29.90,NE,45,1.1,-999.0,60,-99.99,,,0.00,Acu-Link.com,2013-04-09 02:30:00,
2013-04-08 22:45:00,63.9,50.6,29.90,SSW,202,1.1,-999.0,62,-99.99,,,0.00,Acu-Link.com,2013-04-09 02:45:00,
2013-04-08 23:01:00,63.1,50.3,29.90,WSW,247,2.7,-999.0,63,-99.99,,,0.00,Acu-Link.com,2013-04-09 03:01:00,
2013-04-08 23:46:00,61.0,50.4,29.90,WSW,247,0.0,-999.0,68,-99.99,,,0.00,Acu-Link.com,2013-04-09 03:46:00,